Time;durP1;ratioP1;P1;durP2;ratioP2;P2;SDS_P1;SDS_P2;PMS_P1;PMS_P2;Temp;Humidity;BMP_temperature;BMP_pressure;BME280_temperature;BME280_humidity;BME280_pressure;Samples;Min_cycle;Max_cycle;Signal;HPM_P1;HPM_P2
2022/04/22 00:02:12;;;;;;;;;;;;;;;19.21;42.46;101178.84;4979099;28;19919;-86
2022/04/22 00:04:37;;;;;;;;;;;;;;;19.22;42.38;101178.78;4982745;28;19940;-85
2022/04/22 00:07:02;;;;;;;;;;;;;;;19.22;42.62;101177.94;4984090;28;19918;-85
2022/04/22 00:09:27;;;;;;;;;;;;;;;19.23;42.76;101172.72;4983541;28;19941;-85
2022/04/22 00:11:53;;;;;;;;;;;;;;;19.25;42.40;101176.16;4965851;28;19918;-85
2022/04/22 00:14:18;;;;;;;;;;;;;;;19.24;42.41;101181.41;4984113;28;19984;-85
2022/04/22 00:16:44;;;;;;;;;;;;;;;19.20;42.51;101177.94;4982220;28;19918;-84
2022/04/22 00:19:09;;;;;;;;;;;;;;;19.22;42.33;101176.19;4965269;28;19933;-85
2022/04/22 00:21:34;;;;;;;;;;;;;;;19.24;42.30;101176.19;4983152;28;19921;-85
2022/04/22 00:23:59;;;;;;;;;;;;;;;19.22;42.36;101167.50;4982546;28;19918;-87
2022/04/22 00:26:25;;;;;;;;;;;;;;;19.15;42.13;101169.31;4979344;28;20369;-87
2022/04/22 00:28:51;;;;;;;;;;;;;;;19.19;42.42;101165.78;4960039;28;20373;-85
2022/04/22 00:31:17;;;;;;;;;;;;;;;19.19;42.40;101165.78;4977089;28;19922;-85
2022/04/22 00:33:42;;;;;;;;;;;;;;;19.20;42.30;101170.13;4976999;28;19964;-87
2022/04/22 00:36:07;;;;;;;;;;;;;;;19.18;42.35;101179.72;4959553;28;19918;-86
2022/04/22 00:38:34;;;;;;;;;;;;;;;19.18;42.42;101171.03;4977424;28;19997;-87
2022/04/22 00:40:59;;;;;;;;;;;;;;;19.16;42.57;101168.41;4958977;28;20013;-86
2022/04/22 00:43:25;;;;;;;;;;;;;;;19.19;42.37;101172.78;4976025;28;20016;-86
2022/04/22 00:45:51;;;;;;;;;;;;;;;19.08;42.70;101165.91;4959772;28;19921;-87
2022/04/22 00:48:18;;;;;;;;;;;;;;;19.10;42.91;101161.53;4959012;28;19925;-87
2022/04/22 00:50:44;;;;;;;;;;;;;;;19.02;42.89;101155.53;4976463;28;19921;-85
2022/04/22 00:53:09;;;;;;;;;;;;;;;19.01;43.12;101166.88;4959304;28;19918;-88
2022/04/22 00:55:43;;;;;;;;;;;;;;;19.07;43.08;101158.09;4959496;28;19914;-87
2022/04/22 00:58:09;;;;;;;;;;;;;;;19.07;43.08;101152.88;4976483;28;19915;-87
2022/04/22 01:00:34;;;;;;;;;;;;;;;19.07;43.24;101153.72;4958984;28;20443;-86
2022/04/22 01:02:59;;;;;;;;;;;;;;;19.14;42.97;101145.84;4958932;28;19914;-85
2022/04/22 01:10:53;;;;;;;;;;;;;;;19.09;43.05;101140.69;4976197;28;19925;-86
2022/04/22 01:13:19;;;;;;;;;;;;;;;19.03;43.37;101133.81;4959069;28;19914;-86
2022/04/22 01:15:44;;;;;;;;;;;;;;;19.09;43.07;101138.06;4976292;28;19969;-86
2022/04/22 01:18:10;;;;;;;;;;;;;;;19.02;43.50;101129.44;4958874;28;19930;-85
2022/04/22 01:20:36;;;;;;;;;;;;;;;19.09;43.31;101131.09;4976184;28;19954;-85
2022/04/22 01:23:01;;;;;;;;;;;;;;;19.03;43.21;101120.75;4959168;28;19918;-85
2022/04/22 01:25:26;;;;;;;;;;;;;;;19.09;43.15;101115.47;4976355;28;19945;-84
2022/04/22 01:27:51;;;;;;;;;;;;;;;19.05;43.18;101115.50;4975753;28;19925;-85
2022/04/22 01:30:23;;;;;;;;;;;;;;;19.06;43.21;101118.13;4975810;28;19925;-84
2022/04/22 01:32:52;;;;;;;;;;;;;;;19.09;43.03;101110.25;4959049;28;19965;-84
2022/04/22 01:35:18;;;;;;;;;;;;;;;19.07;43.23;101113.75;4959010;28;20390;-85
2022/04/22 01:37:43;;;;;;;;;;;;;;;19.07;43.51;101112.00;4975955;28;19914;-86
2022/04/22 01:40:09;;;;;;;;;;;;;;;19.10;43.17;101116.34;4975970;28;19929;-86
2022/04/22 01:42:34;;;;;;;;;;;;;;;19.08;43.06;101110.28;4958895;28;19918;-86
2022/04/22 01:44:59;;;;;;;;;;;;;;;19.10;43.11;101105.91;4976122;28;20006;-85
2022/04/22 01:47:24;;;;;;;;;;;;;;;19.10;43.53;101108.53;4958659;28;20029;-86
2022/04/22 01:49:50;;;;;;;;;;;;;;;19.13;43.32;101110.22;4958620;28;19965;-87
2022/04/22 01:52:15;;;;;;;;;;;;;;;19.10;43.32;101109.38;4958386;28;19914;-86
2022/04/22 01:54:41;;;;;;;;;;;;;;;19.13;43.30;101105.00;4943440;28;19973;-87
2022/04/22 01:57:06;;;;;;;;;;;;;;;19.06;43.39;101115.50;4979527;28;19914;-86
2022/04/22 01:59:32;;;;;;;;;;;;;;;19.08;43.34;101108.53;4979440;28;20021;-86
2022/04/22 02:01:58;;;;;;;;;;;;;;;19.11;43.20;101105.00;4979341;28;20297;-86
2022/04/22 02:04:23;;;;;;;;;;;;;;;19.10;43.38;101098.09;4962361;28;19925;-85
2022/04/22 02:06:48;;;;;;;;;;;;;;;19.04;43.42;101105.97;4979263;28;19914;-85
2022/04/22 02:09:14;;;;;;;;;;;;;;;19.06;43.25;101104.22;4979408;28;19914;-86
2022/04/22 02:11:40;;;;;;;;;;;;;;;19.05;43.24;101102.47;4979132;28;19924;-87
2022/04/22 02:14:06;;;;;;;;;;;;;;;19.01;43.49;101111.22;4962019;28;19918;-85
2022/04/22 02:16:31;;;;;;;;;;;;;;;19.04;43.56;101096.41;4979375;28;19918;-85
2022/04/22 02:18:57;;;;;;;;;;;;;;;19.07;43.53;101101.56;4961430;28;19930;-86
2022/04/22 02:21:22;;;;;;;;;;;;;;;19.03;43.42;101110.34;4979262;28;20381;-85
2022/04/22 02:23:48;;;;;;;;;;;;;;;19.04;43.57;101101.63;4980086;28;19920;-86
2022/04/22 02:26:13;;;;;;;;;;;;;;;19.05;43.48;101098.13;4978889;28;19915;-85
2022/04/22 02:28:39;;;;;;;;;;;;;;;19.02;43.57;101103.38;4961652;28;20309;-86
2022/04/22 02:31:11;;;;;;;;;;;;;;;18.81;43.79;101103.59;4980799;28;19918;-87
2022/04/22 02:33:40;;;;;;;;;;;;;;;18.60;44.04;101102.06;4979654;28;19914;-87
2022/04/22 02:36:06;;;;;;;;;;;;;;;18.50;44.02;101093.44;4961588;28;19965;-84
2022/04/22 02:38:32;;;;;;;;;;;;;;;18.36;44.02;101100.53;4978947;28;19961;-85
2022/04/22 02:46:25;;;;;;;;;;;;;;;18.34;44.01;101095.34;4979044;28;19921;-85
2022/04/22 02:48:51;;;;;;;;;;;;;;;18.29;43.69;101097.09;4978618;28;19914;-85
2022/04/22 02:51:16;;;;;;;;;;;;;;;18.28;43.90;101092.78;4961714;28;19914;-85
2022/04/22 02:53:42;;;;;;;;;;;;;;;18.24;43.74;101096.28;4961398;28;19925;-85
2022/04/22 02:56:07;;;;;;;;;;;;;;;18.22;43.86;101088.47;4978559;28;20009;-85
2022/04/22 02:58:33;;;;;;;;;;;;;;;18.19;43.90;101082.44;4978573;28;19918;-84
2022/04/22 03:00:59;;;;;;;;;;;;;;;18.24;43.83;101083.25;4961702;28;20432;-85
2022/04/22 03:03:24;;;;;;;;;;;;;;;18.15;43.93;101083.34;4978393;28;19972;-84
2022/04/22 03:05:50;;;;;;;;;;;;;;;18.15;43.86;101088.53;4978107;28;19914;-84
2022/04/22 03:08:15;;;;;;;;;;;;;;;18.12;44.04;101086.84;4977793;28;19923;-84
2022/04/22 03:10:41;;;;;;;;;;;;;;;18.16;43.83;101085.06;4979925;28;20010;-83
2022/04/22 03:13:06;;;;;;;;;;;;;;;18.14;44.00;101079.00;4967782;28;19964;-81
2022/04/22 03:15:33;;;;;;;;;;;;;;;18.13;43.87;101078.13;4983634;28;20281;-85
2022/04/22 03:17:59;;;;;;;;;;;;;;;18.07;43.92;101073.84;4979337;28;19915;-84
2022/04/22 03:20:24;;;;;;;;;;;;;;;18.03;43.92;101081.66;4962006;28;19934;-84
2022/04/22 03:22:50;;;;;;;;;;;;;;;17.97;43.79;101068.72;4980369;28;19918;-84
2022/04/22 03:25:17;;;;;;;;;;;;;;;17.96;43.95;101080.00;4978660;28;19957;-83
2022/04/22 03:27:42;;;;;;;;;;;;;;;17.98;43.89;101078.25;4960929;28;19918;-83
2022/04/22 03:30:08;;;;;;;;;;;;;;;17.99;43.98;101080.00;4978727;28;19918;-83
2022/04/22 03:32:33;;;;;;;;;;;;;;;18.02;44.01;101079.97;4978583;28;19918;-84
2022/04/22 03:34:58;;;;;;;;;;;;;;;18.03;43.80;101079.06;4978415;28;19918;-84
2022/04/22 03:37:24;;;;;;;;;;;;;;;18.02;44.09;101079.97;4961302;28;20424;-84
2022/04/22 03:39:49;;;;;;;;;;;;;;;18.08;43.95;101079.91;4978810;28;19922;-84
2022/04/22 03:42:14;;;;;;;;;;;;;;;18.08;43.83;101078.16;4977962;28;19918;-84
2022/04/22 03:44:39;;;;;;;;;;;;;;;18.09;43.95;101081.63;4978352;28;19918;-83
2022/04/22 03:47:07;;;;;;;;;;;;;;;18.06;43.99;101077.31;4961162;28;19918;-85
2022/04/22 03:49:33;;;;;;;;;;;;;;;18.06;44.10;101081.66;4961336;28;19968;-83
2022/04/22 03:51:58;;;;;;;;;;;;;;;18.03;43.87;101074.75;4980432;28;19914;-85
2022/04/22 03:54:25;;;;;;;;;;;;;;;18.06;44.20;101071.25;4961811;28;19957;-85
2022/04/22 03:59:35;;;;;;;;;;;;;;;18.00;44.24;101074.75;4963624;28;19968;-84
2022/04/22 04:02:00;;;;;;;;;;;;;;;17.99;44.26;101078.25;4978097;28;19914;-84
2022/04/22 04:04:26;;;;;;;;;;;;;;;18.00;44.09;101077.34;4960317;28;19949;-84
2022/04/22 04:06:51;;;;;;;;;;;;;;;18.04;44.08;101083.41;4977202;28;19914;-84
2022/04/22 04:17:33;;;;;;;;;;;;;;;17.96;44.30;101087.81;4977585;28;19934;-84
2022/04/22 04:25:26;;;;;;;;;;;;;;;17.97;44.28;101089.56;4977385;28;20021;-84
2022/04/22 04:27:52;;;;;;;;;;;;;;;17.88;44.33;101085.28;4960112;28;19965;-83
2022/04/22 04:30:17;;;;;;;;;;;;;;;17.94;44.24;101092.16;4959963;28;19929;-83
2022/04/22 04:32:42;;;;;;;;;;;;;;;17.94;44.28;101077.41;4977443;28;20004;-84
2022/04/22 04:35:07;;;;;;;;;;;;;;;17.99;44.02;101074.78;4976836;28;20040;-84
2022/04/22 04:37:38;;;;;;;;;;;;;;;17.95;44.13;101068.72;4959963;28;20025;-84
2022/04/22 04:40:03;;;;;;;;;;;;;;;17.98;44.35;101073.03;4977184;28;19965;-84
2022/04/22 04:42:29;;;;;;;;;;;;;;;17.94;44.37;101076.53;4959663;28;19926;-85
2022/04/22 04:44:54;;;;;;;;;;;;;;;17.91;44.42;101076.56;4976964;28;19927;-85
2022/04/22 04:47:19;;;;;;;;;;;;;;;17.95;44.28;101078.28;4977152;28;19922;-85
2022/04/22 04:49:45;;;;;;;;;;;;;;;17.95;44.13;101076.53;4977563;28;19925;-85
2022/04/22 04:52:10;;;;;;;;;;;;;;;17.97;44.36;101079.13;4977355;28;19921;-85
2022/04/22 04:54:36;;;;;;;;;;;;;;;17.93;44.33;101070.47;4976610;28;19918;-83
2022/04/22 04:57:01;;;;;;;;;;;;;;;17.94;44.30;101082.59;4959021;28;19924;-84
2022/04/22 04:59:26;;;;;;;;;;;;;;;17.89;44.49;101080.03;4959131;28;19922;-84
2022/04/22 05:01:51;;;;;;;;;;;;;;;17.92;44.31;101079.19;4976969;28;19919;-84
2022/04/22 05:04:17;;;;;;;;;;;;;;;17.94;44.37;101073.94;4976575;28;19914;-85
2022/04/22 05:06:42;;;;;;;;;;;;;;;17.95;44.27;101078.28;4976516;28;19918;-84
2022/04/22 05:09:08;;;;;;;;;;;;;;;17.96;44.34;101078.25;4976231;28;20392;-85
2022/04/22 05:11:33;;;;;;;;;;;;;;;17.94;44.38;101081.75;4976809;28;20270;-85
2022/04/22 05:13:58;;;;;;;;;;;;;;;17.94;44.37;101085.22;4958863;28;19988;-86
2022/04/22 05:16:24;;;;;;;;;;;;;;;17.91;44.41;101084.38;4962089;28;19926;-85
2022/04/22 05:18:49;;;;;;;;;;;;;;;17.94;44.35;101079.16;4977182;28;19941;-85
2022/04/22 05:21:15;;;;;;;;;;;;;;;17.93;44.45;101082.63;4959214;28;20426;-85
2022/04/22 05:23:40;;;;;;;;;;;;;;;17.91;44.24;101084.38;4976290;28;19914;-85
2022/04/22 05:26:05;;;;;;;;;;;;;;;17.85;44.58;101080.06;4942730;28;19918;-85
2022/04/22 05:28:31;;;;;;;;;;;;;;;17.93;44.34;101080.03;4958788;28;19918;-84
2022/04/22 05:33:40;;;;;;;;;;;;;;;17.94;44.16;101081.75;4980799;28;19924;-84
2022/04/22 05:36:06;;;;;;;;;;;;;;;17.95;43.98;101084.34;4980225;28;19914;-85
2022/04/22 05:38:31;;;;;;;;;;;;;;;18.03;43.84;101086.88;4963450;28;19921;-85
2022/04/22 05:40:57;;;;;;;;;;;;;;;18.32;43.36;101085.81;4980832;28;19926;-87
2022/04/22 05:43:22;;;;;;;;;;;;;;;18.56;42.84;101092.53;4946709;28;19919;-75
2022/04/22 05:45:48;;;;;;;;;;;;;;;18.72;42.62;101083.66;4978976;28;19921;-75
2022/04/22 05:48:13;;;;;;;;;;;;;;;18.76;42.18;101089.72;4979284;28;19914;-75
2022/04/22 05:50:38;;;;;;;;;;;;;;;18.87;41.90;101088.75;4962289;28;19925;-75
2022/04/22 05:53:04;;;;;;;;;;;;;;;19.09;41.41;101080.69;4979277;28;19914;-75
2022/04/22 05:55:29;;;;;;;;;;;;;;;19.21;41.08;101077.94;4978727;28;19949;-75
2022/04/22 05:57:54;;;;;;;;;;;;;;;19.33;40.71;101089.97;4961446;28;19925;-75
2022/04/22 06:00:24;;;;;;;;;;;;;;;19.56;40.40;101078.38;4979132;28;19929;-75
2022/04/22 06:02:50;;;;;;;;;;;;;;;19.50;40.37;101076.69;4979109;28;19914;-75
2022/04/22 06:05:16;;;;;;;;;;;;;;;19.65;39.93;101073.00;4978776;28;20321;-75
2022/04/22 06:07:43;;;;;;;;;;;;;;;19.70;39.73;101071.22;4961562;28;20274;-76
2022/04/22 06:13:07;;;;;;;;;;;;;;;19.81;39.06;101068.44;4946436;28;19917;-76
2022/04/22 06:15:33;;;;;;;;;;;;;;;19.89;39.39;101063.97;4978524;28;19928;-76
2022/04/22 06:17:58;;;;;;;;;;;;;;;20.01;39.19;101055.06;4978753;28;20349;-75
2022/04/22 06:20:24;;;;;;;;;;;;;;;20.03;39.39;101066.34;4978688;28;20008;-75
2022/04/22 06:22:49;;;;;;;;;;;;;;;20.12;39.32;101063.59;4978686;28;19921;-76
2022/04/22 06:25:15;;;;;;;;;;;;;;;20.13;39.36;101066.19;4978979;28;19972;-76
2022/04/22 06:27:41;;;;;;;;;;;;;;;20.17;39.15;101061.78;4978260;28;20050;-75
2022/04/22 06:30:17;;;;;;;;;;;;;;;20.17;39.05;101063.53;4978276;28;19914;-78
2022/04/22 06:32:44;;;;;;;;;;;;;;;20.43;39.96;101063.09;4978707;28;19914;-79
2022/04/22 06:35:10;;;;;;;;;;;;;;;20.48;40.64;101058.63;4978749;28;20009;-81
2022/04/22 06:37:35;;;;;;;;;;;;;;;20.33;40.86;101057.16;4978621;28;19914;-78
2022/04/22 06:45:47;;;;;;;;;;;;;;;20.34;41.17;101066.72;4978408;28;20301;-83
2022/04/22 06:48:17;;;;;;;;;;;;;;;20.31;41.24;101054.53;4978062;28;19918;-77
2022/04/22 06:50:46;;;;;;;;;;;;;;;20.30;42.05;101060.69;4978115;28;19921;-78
2022/04/22 06:53:12;;;;;;;;;;;;;;;20.32;40.88;101058.91;4978166;28;20312;-77
2022/04/22 06:55:38;;;;;;;;;;;;;;;20.34;40.72;101048.44;4977948;28;19917;-77
2022/04/22 06:58:07;;;;;;;;;;;;;;;20.38;40.44;101057.06;4978162;28;19918;-77
2022/04/22 07:00:33;;;;;;;;;;;;;;;20.32;40.53;101055.44;4960818;28;19933;-77
2022/04/22 07:02:58;;;;;;;;;;;;;;;20.33;40.65;101058.00;4977781;28;19914;-78
2022/04/22 07:05:24;;;;;;;;;;;;;;;20.34;40.25;101051.91;4960219;28;20013;-78
2022/04/22 07:07:49;;;;;;;;;;;;;;;20.33;40.85;101057.16;4960391;28;19913;-79
2022/04/22 07:10:15;;;;;;;;;;;;;;;20.30;40.38;101052.00;4978445;28;20375;-78
2022/04/22 07:12:40;;;;;;;;;;;;;;;20.30;40.22;101046.75;4959937;28;19969;-78
2022/04/22 07:15:06;;;;;;;;;;;;;;;20.32;39.01;101045.84;4977446;28;19918;-78
2022/04/22 07:17:35;;;;;;;;;;;;;;;20.34;38.52;101040.59;4960137;28;19914;-77
2022/04/22 07:20:01;;;;;;;;;;;;;;;20.33;39.73;101046.69;4977490;28;19977;-77
2022/04/22 07:22:27;;;;;;;;;;;;;;;20.34;38.35;101044.06;4977198;28;19919;-77
2022/04/22 07:24:53;;;;;;;;;;;;;;;20.31;39.81;101040.63;4960031;28;19925;-78
2022/04/22 07:27:19;;;;;;;;;;;;;;;20.33;39.36;101041.47;4944338;28;19918;-78
2022/04/22 07:29:44;;;;;;;;;;;;;;;20.33;40.12;101044.06;4977490;28;19925;-78
2022/04/22 07:32:10;;;;;;;;;;;;;;;20.37;39.28;101037.06;4977456;28;19914;-79
2022/04/22 07:34:35;;;;;;;;;;;;;;;20.39;38.71;101040.50;4977166;28;20357;-77
2022/04/22 07:37:01;;;;;;;;;;;;;;;20.33;39.24;101041.47;4977104;28;20056;-77
2022/04/22 07:39:26;;;;;;;;;;;;;;;20.34;38.29;101032.75;4977181;28;19957;-77
2022/04/22 07:41:51;;;;;;;;;;;;;;;20.33;39.60;101031.00;4977163;28;19914;-76
2022/04/22 07:47:08;;;;;;;;;;;;;;;20.39;37.74;101030.06;4977698;28;19937;-76
2022/04/22 07:49:34;;;;;;;;;;;;;;;20.34;39.23;101040.59;4976697;28;20393;-76
2022/04/22 07:51:59;;;;;;;;;;;;;;;20.32;39.32;101042.38;4976554;28;19992;-75
2022/04/22 07:54:24;;;;;;;;;;;;;;;20.32;39.37;101027.53;4976877;28;19925;-78
2022/04/22 07:56:49;;;;;;;;;;;;;;;20.35;39.37;101034.47;4976834;28;19921;-77
2022/04/22 07:59:15;;;;;;;;;;;;;;;20.34;39.09;101030.13;4976626;28;19918;-78
2022/04/22 08:01:40;;;;;;;;;;;;;;;20.33;40.17;101033.63;4976542;28;20037;-81
2022/04/22 08:04:06;;;;;;;;;;;;;;;20.35;39.45;101030.09;4959577;28;20395;-78
2022/04/22 08:06:32;;;;;;;;;;;;;;;20.39;39.54;101030.06;4976631;28;19925;-77
2022/04/22 08:08:58;;;;;;;;;;;;;;;20.39;39.66;101027.44;4976295;28;20005;-77
2022/04/22 08:11:23;;;;;;;;;;;;;;;20.38;39.43;101036.16;4959263;28;19976;-77
2022/04/22 08:13:49;;;;;;;;;;;;;;;20.35;40.01;101029.22;4976586;28;19921;-78
2022/04/22 08:16:14;;;;;;;;;;;;;;;20.41;40.22;101036.13;4976199;28;19918;-78
2022/04/22 08:18:39;;;;;;;;;;;;;;;20.41;39.43;101030.88;4976258;28;19926;-81
2022/04/22 08:21:04;;;;;;;;;;;;;;;20.42;38.28;101035.22;4976468;28;19922;-82
2022/04/22 08:23:30;;;;;;;;;;;;;;;20.39;38.31;101041.38;4976567;28;19914;-82
2022/04/22 08:25:55;;;;;;;;;;;;;;;20.35;39.04;101035.31;4976088;28;19918;-82
2022/04/22 08:28:20;;;;;;;;;;;;;;;20.37;39.15;101042.28;4958681;28;19961;-81
2022/04/22 08:30:46;;;;;;;;;;;;;;;20.37;38.96;101039.66;4976262;28;19925;-81
2022/04/22 08:33:11;;;;;;;;;;;;;;;20.36;39.16;101036.19;4959078;28;19918;-81
2022/04/22 08:35:36;;;;;;;;;;;;;;;20.41;37.18;101042.19;4976245;28;19924;-81
2022/04/22 08:38:03;;;;;;;;;;;;;;;20.39;38.55;101035.28;4958536;28;19918;-81
2022/04/22 08:40:30;;;;;;;;;;;;;;;20.38;39.26;101036.16;4976307;28;19945;-80
2022/04/22 08:42:57;;;;;;;;;;;;;;;20.34;39.74;101032.75;4976141;28;20380;-82
2022/04/22 08:45:25;;;;;;;;;;;;;;;20.34;39.65;101027.53;4975965;28;20428;-79
2022/04/22 08:50:35;;;;;;;;;;;;;;;20.35;37.60;101010.94;4961817;28;19965;-78
2022/04/22 08:53:08;;;;;;;;;;;;;;;20.34;37.42;101012.69;4958668;28;19914;-81
2022/04/22 08:55:34;;;;;;;;;;;;;;;20.34;35.83;101010.09;4958280;28;19914;-82
2022/04/22 08:58:00;;;;;;;;;;;;;;;20.34;38.37;101006.63;4942919;28;19968;-79
2022/04/22 09:00:28;;;;;;;;;;;;;;;20.33;39.37;101002.25;4958576;28;19970;-79
2022/04/22 09:02:54;;;;;;;;;;;;;;;20.34;36.71;101001.38;4958514;28;19914;-79
2022/04/22 09:05:19;;;;;;;;;;;;;;;20.30;36.34;100995.34;4957417;28;19922;-80
2022/04/22 09:07:45;;;;;;;;;;;;;;;20.29;36.66;100998.84;4975732;28;19919;-83
2022/04/22 09:10:11;;;;;;;;;;;;;;;20.29;36.92;100996.22;4958784;28;19918;-79
2022/04/22 09:12:37;;;;;;;;;;;;;;;20.29;39.61;100998.84;4958286;28;19918;-81
2022/04/22 09:15:02;;;;;;;;;;;;;;;20.33;37.78;100994.41;4958432;28;19914;-79
2022/04/22 09:17:29;;;;;;;;;;;;;;;20.28;37.28;100988.44;4958374;28;19968;-80
2022/04/22 09:19:57;;;;;;;;;;;;;;;20.26;37.51;100987.59;4975173;28;19931;-79
2022/04/22 09:22:23;;;;;;;;;;;;;;;20.25;37.39;100989.34;4958042;28;19918;-79
2022/04/22 09:24:48;;;;;;;;;;;;;;;20.27;39.93;100986.69;4958294;28;20365;-80
2022/04/22 09:27:14;;;;;;;;;;;;;;;20.19;38.18;100976.41;4958298;28;19965;-79
2022/04/22 09:29:39;;;;;;;;;;;;;;;20.10;38.53;100981.78;4958483;28;19914;-81
2022/04/22 09:32:05;;;;;;;;;;;;;;;20.10;38.87;100977.41;4958095;28;20001;-78
2022/04/22 09:34:36;;;;;;;;;;;;;;;20.05;39.31;100974.00;4942858;28;19918;-81
2022/04/22 09:42:39;;;;;;;;;;;;;;;19.91;39.54;100976.88;4975343;28;20384;-82
2022/04/22 09:43:17;;;;;;;;;;;;;;;19.81;40.57;100964.84;4975089;28;20292;-82
2022/04/22 09:45:42;;;;;;;;;;;;;;;19.83;40.06;100965.69;4958261;28;20293;-81
2022/04/22 09:48:17;;;;;;;;;;;;;;;19.88;40.45;100971.72;4958112;28;19919;-82
2022/04/22 09:50:42;;;;;;;;;;;;;;;19.87;40.91;100969.13;4975214;28;19969;-81
2022/04/22 09:53:08;;;;;;;;;;;;;;;19.72;40.32;100958.03;4957816;28;19919;-79
2022/04/22 09:55:53;;;;;;;;;;;;;;;19.73;40.97;100964.13;4975289;28;19910;-80
2022/04/22 09:58:27;;;;;;;;;;;;;;;19.70;40.83;100964.16;4958296;28;19920;-81
2022/04/22 10:00:55;;;;;;;;;;;;;;;19.69;40.81;100965.03;4975113;28;19925;-83
2022/04/22 10:03:21;;;;;;;;;;;;;;;19.67;40.36;100962.44;4957671;28;19914;-81
2022/04/22 10:05:47;;;;;;;;;;;;;;;19.63;40.52;100959.91;4957937;28;19922;-81
2022/04/22 10:08:16;;;;;;;;;;;;;;;19.70;40.84;100958.94;4957718;28;20016;-81
2022/04/22 10:10:42;;;;;;;;;;;;;;;19.67;40.42;100956.38;4957853;28;20068;-80
2022/04/22 10:13:12;;;;;;;;;;;;;;;19.66;40.41;100952.91;4957904;28;19958;-79
2022/04/22 10:15:39;;;;;;;;;;;;;;;19.66;40.43;100947.69;4976273;28;20431;-81
2022/04/22 10:18:04;;;;;;;;;;;;;;;19.66;40.44;100949.41;4961842;28;20373;-81
2022/04/22 10:20:32;;;;;;;;;;;;;;;19.63;40.13;100952.06;4961553;28;19922;-81
2022/04/22 10:22:58;;;;;;;;;;;;;;;19.63;39.95;100946.84;4978948;28;19918;-81
2022/04/22 10:25:24;;;;;;;;;;;;;;;19.61;40.31;100959.94;4961346;28;19918;-80
2022/04/22 10:27:51;;;;;;;;;;;;;;;19.64;40.51;100941.63;4978670;28;19914;-80
2022/04/22 10:30:17;;;;;;;;;;;;;;;19.63;40.12;100947.72;4961160;28;19969;-81
2022/04/22 10:32:45;;;;;;;;;;;;;;;19.60;40.26;100949.50;4960957;28;19926;-79
2022/04/22 10:35:12;;;;;;;;;;;;;;;19.60;39.89;100941.66;4961108;28;19915;-80
2022/04/22 10:37:41;;;;;;;;;;;;;;;19.59;40.01;100945.19;4961654;28;19917;-80
2022/04/22 10:40:27;;;;;;;;;;;;;;;19.59;40.50;100946.03;4978067;28;20386;-80
2022/04/22 10:42:55;;;;;;;;;;;;;;;19.59;40.38;100935.59;4977935;28;19914;-80
2022/04/22 10:48:17;;;;;;;;;;;;;;;19.50;40.32;100933.13;4978798;28;19921;-81
2022/04/22 10:50:43;;;;;;;;;;;;;;;19.55;39.89;100941.75;4978299;28;19914;-81
2022/04/22 10:53:09;;;;;;;;;;;;;;;19.58;39.86;100933.88;4978812;28;19945;-81
2022/04/22 10:55:39;;;;;;;;;;;;;;;19.62;40.26;100932.06;4961338;28;19964;-80
2022/04/22 10:58:13;;;;;;;;;;;;;;;19.62;39.66;100932.06;4982532;28;19921;-80
2022/04/22 11:00:42;;;;;;;;;;;;;;;19.62;39.67;100935.56;4979674;28;19918;-80
2022/04/22 11:03:15;;;;;;;;;;;;;;;19.61;39.66;100930.34;4961938;28;20008;-82
2022/04/22 11:05:44;;;;;;;;;;;;;;;19.64;39.94;100931.19;4980198;28;19937;-84
2022/04/22 11:08:19;;;;;;;;;;;;;;;19.61;39.44;100930.34;4962357;28;20008;-82
2022/04/22 11:10:48;;;;;;;;;;;;;;;19.64;40.91;100932.91;4962060;28;19910;-80
2022/04/22 11:13:29;;;;;;;;;;;;;;;19.61;39.25;100931.22;4978166;28;20379;-81
2022/04/22 11:16:13;;;;;;;;;;;;;;;19.57;39.13;100929.53;4961641;28;20045;-80
2022/04/22 11:18:40;;;;;;;;;;;;;;;19.60;39.48;100920.78;4960226;28;19929;-79
2022/04/22 11:21:39;;;;;;;;;;;;;;;19.58;39.07;100914.75;4960794;28;19919;-80
2022/04/22 11:24:09;;;;;;;;;;;;;;;19.61;39.50;100915.53;4941556;28;19960;-82
2022/04/22 11:26:35;;;;;;;;;;;;;;;19.65;39.14;100912.00;4979584;28;19954;-79
2022/04/22 11:29:02;;;;;;;;;;;;;;;19.54;38.48;100903.50;4977572;28;19918;-80
2022/04/22 11:31:28;;;;;;;;;;;;;;;19.52;38.99;100900.91;4978047;28;19937;-79
2022/04/22 11:33:55;;;;;;;;;;;;;;;19.55;39.55;100894.75;4978647;28;19914;-79
2022/04/22 11:36:22;;;;;;;;;;;;;;;19.55;39.09;100894.75;4961203;28;19914;-80
2022/04/22 11:38:48;;;;;;;;;;;;;;;19.54;39.32;100898.28;4978465;28;19914;-79
2022/04/22 11:41:14;;;;;;;;;;;;;;;19.58;39.68;100893.88;4944573;28;19922;-79
2022/04/22 11:43:39;;;;;;;;;;;;;;;19.59;39.18;100904.25;4978099;28;19918;-79
2022/04/22 11:46:04;;;;;;;;;;;;;;;19.57;39.30;100903.44;4961041;28;19914;-79
2022/04/22 11:48:30;;;;;;;;;;;;;;;19.58;39.57;100896.47;4977983;28;19925;-80
2022/04/22 11:50:57;;;;;;;;;;;;;;;19.59;38.95;100880.78;4961152;28;19919;-79
2022/04/22 11:53:26;;;;;;;;;;;;;;;19.60;38.89;100890.34;4977187;28;19969;-79
2022/04/22 11:55:51;;;;;;;;;;;;;;;19.53;38.07;100879.16;4977126;28;19914;-79
2022/04/22 11:58:19;;;;;;;;;;;;;;;19.55;38.86;100886.06;4977564;28;19922;-80
2022/04/22 12:06:13;;;;;;;;;;;;;;;19.61;39.08;100883.38;4978042;28;19968;-83
2022/04/22 12:08:51;;;;;;;;;;;;;;;19.59;38.91;100877.31;4960610;28;19914;-82
2022/04/22 12:11:17;;;;;;;;;;;;;;;19.52;38.48;100864.34;4959859;28;19915;-80
2022/04/22 12:13:44;;;;;;;;;;;;;;;19.48;38.87;100872.25;4960408;28;19968;-80
2022/04/22 12:16:10;;;;;;;;;;;;;;;19.52;38.62;100871.34;4959588;28;20001;-80
2022/04/22 12:18:36;;;;;;;;;;;;;;;19.57;38.93;100861.66;4977083;28;19958;-79
2022/04/22 12:21:02;;;;;;;;;;;;;;;19.64;39.15;100854.59;4977512;28;19926;-79
2022/04/22 12:23:37;;;;;;;;;;;;;;;19.64;39.20;100858.09;4977262;28;19914;-79
2022/04/22 12:26:02;;;;;;;;;;;;;;;19.57;38.11;100855.59;4943509;28;19918;-77
2022/04/22 12:28:28;;;;;;;;;;;;;;;19.56;38.29;100856.50;4959078;28;19961;-78
2022/04/22 12:31:00;;;;;;;;;;;;;;;19.53;38.25;100846.94;4944293;28;19918;-77
2022/04/22 12:33:25;;;;;;;;;;;;;;;19.57;38.73;100839.94;4959200;28;20340;-77
2022/04/22 12:36:11;;;;;;;;;;;;;;;19.58;38.64;100845.13;4959263;28;19918;-78
2022/04/22 12:38:37;;;;;;;;;;;;;;;19.59;38.48;100839.00;4976111;28;19914;-77
2022/04/22 12:41:02;;;;;;;;;;;;;;;19.59;38.37;100828.56;4976370;28;20356;-77
2022/04/22 12:43:29;;;;;;;;;;;;;;;19.66;38.79;100829.31;4976474;28;19960;-77
2022/04/22 12:54:31;;;;;;;;;;;;;;;19.57;38.17;100813.81;4962363;28;19925;-80
2022/04/22 12:56:57;;;;;;;;;;;;;;;19.59;38.11;100810.28;4958930;28;19910;-80
2022/04/22 12:59:39;;;;;;;;;;;;;;;19.63;38.01;100814.56;4977386;28;20029;-81
2022/04/22 13:02:08;;;;;;;;;;;;;;;19.69;38.90;100814.50;4976816;28;19921;-81
2022/04/22 13:04:48;;;;;;;;;;;;;;;19.72;39.03;100803.13;4977835;28;19925;-80
2022/04/22 13:07:16;;;;;;;;;;;;;;;19.71;38.69;100810.09;4977840;28;19921;-80
2022/04/22 13:09:41;;;;;;;;;;;;;;;19.69;38.33;100804.06;4961093;28;19941;-79
2022/04/22 13:12:07;;;;;;;;;;;;;;;19.62;38.04;100807.66;4976777;28;19918;-80
2022/04/22 13:14:33;;;;;;;;;;;;;;;19.63;37.82;100804.13;4978158;28;19922;-81
2022/04/22 13:17:18;;;;;;;;;;;;;;;19.62;37.80;100794.59;4961988;28;20041;-78
2022/04/22 13:19:47;;;;;;;;;;;;;;;19.66;38.75;100791.03;4977667;28;19922;-78
2022/04/22 13:22:12;;;;;;;;;;;;;;;19.71;38.76;100789.22;4961101;28;19988;-78
2022/04/22 13:24:38;;;;;;;;;;;;;;;19.76;39.35;100790.88;4946021;28;19918;-79
2022/04/22 13:27:04;;;;;;;;;;;;;;;19.68;38.26;100796.22;4960569;28;20022;-79
2022/04/22 13:29:29;;;;;;;;;;;;;;;19.64;37.48;100778.88;4944166;28;19918;-79
2022/04/22 13:31:55;;;;;;;;;;;;;;;19.65;37.76;100780.63;4942906;28;19928;-79
2022/04/22 13:34:20;;;;;;;;;;;;;;;19.65;38.45;100785.84;4943119;28;19940;-80
2022/04/22 13:36:45;;;;;;;;;;;;;;;19.61;37.35;100763.28;4975727;28;19972;-77
2022/04/22 13:39:11;;;;;;;;;;;;;;;19.68;38.75;100772.72;4976077;28;19914;-77